sensor_id;sensor_type;location;lat;lon;timestamp;temperature;humidity
39095;DHT22;24840;47.508;19.376;2023-04-06T00:01:40;-1.00;95.90
39095;DHT22;24840;47.508;19.376;2023-04-06T00:04:06;-0.90;95.80
39095;DHT22;24840;47.508;19.376;2023-04-06T00:06:32;-1.20;95.30
39095;DHT22;24840;47.508;19.376;2023-04-06T00:08:59;-1.20;95.90
39095;DHT22;24840;47.508;19.376;2023-04-06T00:11:25;-1.10;95.40
39095;DHT22;24840;47.508;19.376;2023-04-06T00:13:51;-1.10;95.40
39095;DHT22;24840;47.508;19.376;2023-04-06T00:16:17;-1.30;95.20
39095;DHT22;24840;47.508;19.376;2023-04-06T00:18:43;-1.40;95.50
39095;DHT22;24840;47.508;19.376;2023-04-06T00:21:11;-1.50;95.70
39095;DHT22;24840;47.508;19.376;2023-04-06T00:23:38;-1.40;96.20
39095;DHT22;24840;47.508;19.376;2023-04-06T00:26:04;-1.40;95.90
39095;DHT22;24840;47.508;19.376;2023-04-06T00:28:30;-1.50;96.20
39095;DHT22;24840;47.508;19.376;2023-04-06T00:30:56;-1.40;96.50
39095;DHT22;24840;47.508;19.376;2023-04-06T00:33:22;-1.50;96.20
39095;DHT22;24840;47.508;19.376;2023-04-06T00:35:49;-1.50;96.20
39095;DHT22;24840;47.508;19.376;2023-04-06T00:38:15;-1.50;96.60
39095;DHT22;24840;47.508;19.376;2023-04-06T00:40:41;-1.60;96.70
39095;DHT22;24840;47.508;19.376;2023-04-06T00:43:11;-1.50;96.80
39095;DHT22;24840;47.508;19.376;2023-04-06T00:45:38;-1.60;96.70
39095;DHT22;24840;47.508;19.376;2023-04-06T00:48:07;-1.50;96.90
39095;DHT22;24840;47.508;19.376;2023-04-06T00:50:34;-1.60;96.70
39095;DHT22;24840;47.508;19.376;2023-04-06T00:53:00;-1.80;96.50
39095;DHT22;24840;47.508;19.376;2023-04-06T00:55:29;-1.70;96.90
39095;DHT22;24840;47.508;19.376;2023-04-06T00:57:57;-1.70;96.70
39095;DHT22;24840;47.508;19.376;2023-04-06T01:00:24;-1.70;96.90
39095;DHT22;24840;47.508;19.376;2023-04-06T01:02:49;-1.90;96.60
39095;DHT22;24840;47.508;19.376;2023-04-06T01:05:15;-2.00;96.70
39095;DHT22;24840;47.508;19.376;2023-04-06T01:07:41;-1.80;97.00
39095;DHT22;24840;47.508;19.376;2023-04-06T01:10:07;-2.00;96.60
39095;DHT22;24840;47.508;19.376;2023-04-06T01:12:33;-2.10;96.70
39095;DHT22;24840;47.508;19.376;2023-04-06T01:14:59;-2.00;97.30
39095;DHT22;24840;47.508;19.376;2023-04-06T01:17:25;-2.10;97.00
39095;DHT22;24840;47.508;19.376;2023-04-06T01:19:51;-2.00;97.20
39095;DHT22;24840;47.508;19.376;2023-04-06T01:22:19;-1.90;97.20
39095;DHT22;24840;47.508;19.376;2023-04-06T01:24:46;-1.90;96.90
39095;DHT22;24840;47.508;19.376;2023-04-06T01:27:12;-2.00;97.10
39095;DHT22;24840;47.508;19.376;2023-04-06T01:29:38;-1.90;96.70
39095;DHT22;24840;47.508;19.376;2023-04-06T01:32:07;-2.00;96.90
39095;DHT22;24840;47.508;19.376;2023-04-06T01:34:33;-2.00;97.00
39095;DHT22;24840;47.508;19.376;2023-04-06T01:36:59;-2.10;97.00
39095;DHT22;24840;47.508;19.376;2023-04-06T01:39:25;-2.10;97.30
39095;DHT22;24840;47.508;19.376;2023-04-06T01:41:51;-2.00;97.50
39095;DHT22;24840;47.508;19.376;2023-04-06T01:44:17;-2.00;97.80
39095;DHT22;24840;47.508;19.376;2023-04-06T01:46:44;-2.10;97.90
39095;DHT22;24840;47.508;19.376;2023-04-06T01:49:11;-2.10;97.70
39095;DHT22;24840;47.508;19.376;2023-04-06T01:51:37;-2.20;97.80
39095;DHT22;24840;47.508;19.376;2023-04-06T01:54:03;-2.30;97.60
39095;DHT22;24840;47.508;19.376;2023-04-06T01:56:29;-2.30;97.40
39095;DHT22;24840;47.508;19.376;2023-04-06T01:58:54;-2.30;97.70
39095;DHT22;24840;47.508;19.376;2023-04-06T02:01:21;-2.30;97.80
39095;DHT22;24840;47.508;19.376;2023-04-06T02:03:47;-2.30;97.80
39095;DHT22;24840;47.508;19.376;2023-04-06T02:06:12;-2.30;97.70
39095;DHT22;24840;47.508;19.376;2023-04-06T02:08:38;-2.40;97.90
39095;DHT22;24840;47.508;19.376;2023-04-06T02:11:04;-2.30;98.00
39095;DHT22;24840;47.508;19.376;2023-04-06T02:13:30;-2.40;98.00
39095;DHT22;24840;47.508;19.376;2023-04-06T02:15:56;-2.40;98.00
39095;DHT22;24840;47.508;19.376;2023-04-06T02:18:22;-2.40;98.00
39095;DHT22;24840;47.508;19.376;2023-04-06T02:20:48;-2.50;98.00
39095;DHT22;24840;47.508;19.376;2023-04-06T02:23:14;-2.50;98.40
39095;DHT22;24840;47.508;19.376;2023-04-06T02:25:40;-2.60;98.20
39095;DHT22;24840;47.508;19.376;2023-04-06T02:28:06;-2.60;98.20
39095;DHT22;24840;47.508;19.376;2023-04-06T02:30:32;-2.70;98.30
39095;DHT22;24840;47.508;19.376;2023-04-06T02:33:02;-2.70;98.60
39095;DHT22;24840;47.508;19.376;2023-04-06T02:35:30;-2.80;98.50
39095;DHT22;24840;47.508;19.376;2023-04-06T02:37:57;-2.80;98.60
39095;DHT22;24840;47.508;19.376;2023-04-06T02:40:22;-2.80;98.80
39095;DHT22;24840;47.508;19.376;2023-04-06T02:42:48;-2.80;99.30
39095;DHT22;24840;47.508;19.376;2023-04-06T02:45:14;-2.70;98.90
39095;DHT22;24840;47.508;19.376;2023-04-06T02:47:41;-2.70;98.50
39095;DHT22;24840;47.508;19.376;2023-04-06T02:50:07;-2.70;98.30
39095;DHT22;24840;47.508;19.376;2023-04-06T02:52:32;-2.80;98.50
39095;DHT22;24840;47.508;19.376;2023-04-06T02:54:58;-2.80;99.00
39095;DHT22;24840;47.508;19.376;2023-04-06T02:57:24;-2.70;98.50
39095;DHT22;24840;47.508;19.376;2023-04-06T02:59:50;-2.70;98.60
39095;DHT22;24840;47.508;19.376;2023-04-06T03:02:15;-2.80;98.50
39095;DHT22;24840;47.508;19.376;2023-04-06T03:04:42;-2.80;98.80
39095;DHT22;24840;47.508;19.376;2023-04-06T03:07:08;-2.80;98.90
39095;DHT22;24840;47.508;19.376;2023-04-06T03:09:36;-2.80;98.70
39095;DHT22;24840;47.508;19.376;2023-04-06T03:12:02;-2.80;98.60
39095;DHT22;24840;47.508;19.376;2023-04-06T03:14:28;-2.90;98.40
39095;DHT22;24840;47.508;19.376;2023-04-06T03:16:54;-2.90;98.60
39095;DHT22;24840;47.508;19.376;2023-04-06T03:19:19;-2.90;99.10
39095;DHT22;24840;47.508;19.376;2023-04-06T03:21:48;-2.90;99.40
39095;DHT22;24840;47.508;19.376;2023-04-06T03:24:13;-2.90;99.60
39095;DHT22;24840;47.508;19.376;2023-04-06T03:26:39;-2.90;99.70
39095;DHT22;24840;47.508;19.376;2023-04-06T03:29:06;-3.00;99.70
39095;DHT22;24840;47.508;19.376;2023-04-06T03:31:31;-3.00;99.60
39095;DHT22;24840;47.508;19.376;2023-04-06T03:33:57;-2.90;99.70
39095;DHT22;24840;47.508;19.376;2023-04-06T03:36:23;-2.90;99.40
39095;DHT22;24840;47.508;19.376;2023-04-06T03:38:48;-3.00;99.20
39095;DHT22;24840;47.508;19.376;2023-04-06T03:41:14;-3.00;99.00
39095;DHT22;24840;47.508;19.376;2023-04-06T03:43:40;-3.10;99.20
39095;DHT22;24840;47.508;19.376;2023-04-06T03:46:06;-3.10;98.90
39095;DHT22;24840;47.508;19.376;2023-04-06T03:48:32;-3.10;98.90
39095;DHT22;24840;47.508;19.376;2023-04-06T03:50:57;-3.00;99.40
39095;DHT22;24840;47.508;19.376;2023-04-06T03:53:23;-3.10;99.80
39095;DHT22;24840;47.508;19.376;2023-04-06T03:55:49;-3.10;99.90
39095;DHT22;24840;47.508;19.376;2023-04-06T03:58:14;-3.20;99.90
39095;DHT22;24840;47.508;19.376;2023-04-06T04:00:40;-3.10;99.90
39095;DHT22;24840;47.508;19.376;2023-04-06T04:03:06;-3.10;99.90
39095;DHT22;24840;47.508;19.376;2023-04-06T04:05:32;-3.10;99.90
39095;DHT22;24840;47.508;19.376;2023-04-06T04:07:57;-3.10;99.80
39095;DHT22;24840;47.508;19.376;2023-04-06T04:10:23;-3.10;99.90
39095;DHT22;24840;47.508;19.376;2023-04-06T04:12:49;-3.10;99.60
39095;DHT22;24840;47.508;19.376;2023-04-06T04:15:15;-3.00;99.90
39095;DHT22;24840;47.508;19.376;2023-04-06T04:17:40;-3.00;99.90
39095;DHT22;24840;47.508;19.376;2023-04-06T04:20:07;-3.10;99.60
39095;DHT22;24840;47.508;19.376;2023-04-06T04:22:33;-3.10;99.90
39095;DHT22;24840;47.508;19.376;2023-04-06T04:25:01;-3.30;99.90
39095;DHT22;24840;47.508;19.376;2023-04-06T04:27:27;-3.40;99.90
39095;DHT22;24840;47.508;19.376;2023-04-06T04:29:53;-3.30;99.90
39095;DHT22;24840;47.508;19.376;2023-04-06T04:32:18;-3.20;99.90
39095;DHT22;24840;47.508;19.376;2023-04-06T04:34:45;-3.00;99.90
39095;DHT22;24840;47.508;19.376;2023-04-06T04:37:11;-2.90;99.90
39095;DHT22;24840;47.508;19.376;2023-04-06T04:39:36;-3.00;99.90
39095;DHT22;24840;47.508;19.376;2023-04-06T04:42:02;-3.20;99.90
39095;DHT22;24840;47.508;19.376;2023-04-06T04:44:28;-3.10;99.90
39095;DHT22;24840;47.508;19.376;2023-04-06T04:46:54;-3.00;99.90
39095;DHT22;24840;47.508;19.376;2023-04-06T04:49:19;-3.00;99.90
39095;DHT22;24840;47.508;19.376;2023-04-06T04:51:45;-2.90;99.90
39095;DHT22;24840;47.508;19.376;2023-04-06T04:54:11;-2.80;99.90
39095;DHT22;24840;47.508;19.376;2023-04-06T04:56:37;-2.70;99.90
39095;DHT22;24840;47.508;19.376;2023-04-06T04:59:02;-2.60;99.90
39095;DHT22;24840;47.508;19.376;2023-04-06T05:01:28;-2.50;99.90
39095;DHT22;24840;47.508;19.376;2023-04-06T05:03:54;-2.40;99.90
39095;DHT22;24840;47.508;19.376;2023-04-06T05:06:20;-2.40;99.90
39095;DHT22;24840;47.508;19.376;2023-04-06T05:08:46;-2.30;99.90
39095;DHT22;24840;47.508;19.376;2023-04-06T05:11:11;-2.20;99.90
39095;DHT22;24840;47.508;19.376;2023-04-06T05:13:37;-2.20;99.90
39095;DHT22;24840;47.508;19.376;2023-04-06T05:16:03;-2.40;99.90
39095;DHT22;24840;47.508;19.376;2023-04-06T05:18:29;-2.40;99.90
39095;DHT22;24840;47.508;19.376;2023-04-06T05:20:55;-2.10;99.90
39095;DHT22;24840;47.508;19.376;2023-04-06T05:23:21;-1.90;99.90
39095;DHT22;24840;47.508;19.376;2023-04-06T05:25:46;-1.80;99.90
39095;DHT22;24840;47.508;19.376;2023-04-06T05:28:12;-1.90;99.90
39095;DHT22;24840;47.508;19.376;2023-04-06T05:30:39;-1.90;99.90
39095;DHT22;24840;47.508;19.376;2023-04-06T05:33:05;-1.70;99.90
39095;DHT22;24840;47.508;19.376;2023-04-06T05:35:31;-1.60;99.90
39095;DHT22;24840;47.508;19.376;2023-04-06T05:37:57;-1.70;99.90
39095;DHT22;24840;47.508;19.376;2023-04-06T05:40:23;-1.40;99.90
39095;DHT22;24840;47.508;19.376;2023-04-06T05:42:49;-1.20;99.90
39095;DHT22;24840;47.508;19.376;2023-04-06T05:45:15;-1.00;99.90
39095;DHT22;24840;47.508;19.376;2023-04-06T05:47:43;-0.90;99.90
39095;DHT22;24840;47.508;19.376;2023-04-06T05:50:13;-0.70;99.90
39095;DHT22;24840;47.508;19.376;2023-04-06T05:52:39;-0.50;99.90
39095;DHT22;24840;47.508;19.376;2023-04-06T05:55:08;-0.40;99.90
39095;DHT22;24840;47.508;19.376;2023-04-06T05:57:34;-0.30;99.90
39095;DHT22;24840;47.508;19.376;2023-04-06T06:00:00;-0.30;99.90
39095;DHT22;24840;47.508;19.376;2023-04-06T06:02:26;0.00;99.90
39095;DHT22;24840;47.508;19.376;2023-04-06T06:04:52;0.00;99.90
39095;DHT22;24840;47.508;19.376;2023-04-06T06:07:17;0.10;99.90
39095;DHT22;24840;47.508;19.376;2023-04-06T06:09:43;0.30;99.90
39095;DHT22;24840;47.508;19.376;2023-04-06T06:12:12;0.50;99.90
39095;DHT22;24840;47.508;19.376;2023-04-06T06:14:38;0.70;99.90
39095;DHT22;24840;47.508;19.376;2023-04-06T06:17:04;0.80;99.90
39095;DHT22;24840;47.508;19.376;2023-04-06T06:19:30;1.00;99.90
39095;DHT22;24840;47.508;19.376;2023-04-06T06:21:55;1.10;99.90
39095;DHT22;24840;47.508;19.376;2023-04-06T06:24:24;1.20;99.90
39095;DHT22;24840;47.508;19.376;2023-04-06T06:26:50;1.40;99.90
39095;DHT22;24840;47.508;19.376;2023-04-06T06:29:16;1.60;99.90
39095;DHT22;24840;47.508;19.376;2023-04-06T06:31:42;1.40;99.90
39095;DHT22;24840;47.508;19.376;2023-04-06T06:34:08;1.50;99.90
39095;DHT22;24840;47.508;19.376;2023-04-06T06:36:34;1.70;99.90
39095;DHT22;24840;47.508;19.376;2023-04-06T06:39:00;1.90;97.90
39095;DHT22;24840;47.508;19.376;2023-04-06T06:41:28;2.10;95.90
39095;DHT22;24840;47.508;19.376;2023-04-06T06:43:54;2.50;98.30
39095;DHT22;24840;47.508;19.376;2023-04-06T06:46:20;2.60;94.40
39095;DHT22;24840;47.508;19.376;2023-04-06T06:48:46;2.70;95.20
39095;DHT22;24840;47.508;19.376;2023-04-06T06:51:12;2.60;93.00
39095;DHT22;24840;47.508;19.376;2023-04-06T06:53:38;2.70;92.60
39095;DHT22;24840;47.508;19.376;2023-04-06T06:56:03;2.80;92.70
39095;DHT22;24840;47.508;19.376;2023-04-06T06:58:29;3.30;92.70
39095;DHT22;24840;47.508;19.376;2023-04-06T07:00:58;3.50;92.90
39095;DHT22;24840;47.508;19.376;2023-04-06T07:03:24;3.50;90.50
39095;DHT22;24840;47.508;19.376;2023-04-06T07:05:50;3.40;90.10
39095;DHT22;24840;47.508;19.376;2023-04-06T07:08:20;3.50;90.00
39095;DHT22;24840;47.508;19.376;2023-04-06T07:10:46;3.60;89.10
39095;DHT22;24840;47.508;19.376;2023-04-06T07:13:12;3.90;91.40
39095;DHT22;24840;47.508;19.376;2023-04-06T07:15:38;4.10;90.20
39095;DHT22;24840;47.508;19.376;2023-04-06T07:18:04;4.30;88.10
39095;DHT22;24840;47.508;19.376;2023-04-06T07:20:29;3.90;87.70
39095;DHT22;24840;47.508;19.376;2023-04-06T07:22:55;4.20;92.30
39095;DHT22;24840;47.508;19.376;2023-04-06T07:25:21;4.60;93.10
39095;DHT22;24840;47.508;19.376;2023-04-06T07:27:47;4.80;88.30
39095;DHT22;24840;47.508;19.376;2023-04-06T07:30:13;4.60;87.90
39095;DHT22;24840;47.508;19.376;2023-04-06T07:32:39;4.50;87.70
39095;DHT22;24840;47.508;19.376;2023-04-06T07:35:05;4.60;87.70
39095;DHT22;24840;47.508;19.376;2023-04-06T07:37:31;4.80;84.50
39095;DHT22;24840;47.508;19.376;2023-04-06T07:39:57;5.10;85.50
39095;DHT22;24840;47.508;19.376;2023-04-06T07:42:22;5.40;85.50
39095;DHT22;24840;47.508;19.376;2023-04-06T07:44:48;5.70;80.60
39095;DHT22;24840;47.508;19.376;2023-04-06T07:47:14;5.80;79.40
39095;DHT22;24840;47.508;19.376;2023-04-06T07:49:40;5.30;76.80
39095;DHT22;24840;47.508;19.376;2023-04-06T07:52:06;5.60;76.90
39095;DHT22;24840;47.508;19.376;2023-04-06T07:54:31;5.70;74.00
39095;DHT22;24840;47.508;19.376;2023-04-06T07:56:57;5.60;75.10
39095;DHT22;24840;47.508;19.376;2023-04-06T07:59:23;5.50;77.00
39095;DHT22;24840;47.508;19.376;2023-04-06T08:01:48;5.70;75.40
39095;DHT22;24840;47.508;19.376;2023-04-06T08:04:14;5.90;75.20
39095;DHT22;24840;47.508;19.376;2023-04-06T08:06:40;5.80;72.50
39095;DHT22;24840;47.508;19.376;2023-04-06T08:09:06;5.60;71.90
39095;DHT22;24840;47.508;19.376;2023-04-06T08:11:32;6.00;76.40
39095;DHT22;24840;47.508;19.376;2023-04-06T08:13:57;5.90;71.30
39095;DHT22;24840;47.508;19.376;2023-04-06T08:16:24;6.30;72.50
39095;DHT22;24840;47.508;19.376;2023-04-06T08:18:50;7.00;72.50
39095;DHT22;24840;47.508;19.376;2023-04-06T08:21:16;6.90;69.20
39095;DHT22;24840;47.508;19.376;2023-04-06T08:23:41;6.80;70.70
39095;DHT22;24840;47.508;19.376;2023-04-06T08:26:07;7.40;69.10
39095;DHT22;24840;47.508;19.376;2023-04-06T08:28:33;7.60;70.20
39095;DHT22;24840;47.508;19.376;2023-04-06T08:31:06;7.60;67.50
39095;DHT22;24840;47.508;19.376;2023-04-06T08:33:32;7.70;68.30
39095;DHT22;24840;47.508;19.376;2023-04-06T08:36:07;7.60;71.00
39095;DHT22;24840;47.508;19.376;2023-04-06T08:38:33;8.20;70.80
39095;DHT22;24840;47.508;19.376;2023-04-06T08:40:59;8.40;64.30
39095;DHT22;24840;47.508;19.376;2023-04-06T08:43:27;8.10;65.90
39095;DHT22;24840;47.508;19.376;2023-04-06T08:45:53;8.30;67.50
39095;DHT22;24840;47.508;19.376;2023-04-06T08:48:20;8.70;67.80
39095;DHT22;24840;47.508;19.376;2023-04-06T08:50:46;8.80;68.20
39095;DHT22;24840;47.508;19.376;2023-04-06T08:53:12;8.20;66.60
39095;DHT22;24840;47.508;19.376;2023-04-06T08:55:39;8.50;65.40
39095;DHT22;24840;47.508;19.376;2023-04-06T08:58:06;7.10;62.80
39095;DHT22;24840;47.508;19.376;2023-04-06T09:00:38;7.00;66.70
39095;DHT22;24840;47.508;19.376;2023-04-06T09:03:05;7.30;66.70
39095;DHT22;24840;47.508;19.376;2023-04-06T09:05:31;7.70;65.30
39095;DHT22;24840;47.508;19.376;2023-04-06T09:07:57;7.80;65.50
39095;DHT22;24840;47.508;19.376;2023-04-06T09:10:23;7.90;65.60
39095;DHT22;24840;47.508;19.376;2023-04-06T09:12:50;8.30;66.20
39095;DHT22;24840;47.508;19.376;2023-04-06T09:15:20;8.60;66.30
39095;DHT22;24840;47.508;19.376;2023-04-06T09:17:47;8.70;64.30
39095;DHT22;24840;47.508;19.376;2023-04-06T09:20:13;8.60;61.50
39095;DHT22;24840;47.508;19.376;2023-04-06T09:22:39;8.30;64.40
39095;DHT22;24840;47.508;19.376;2023-04-06T09:25:06;8.60;66.40
39095;DHT22;24840;47.508;19.376;2023-04-06T09:27:33;8.30;62.80
39095;DHT22;24840;47.508;19.376;2023-04-06T09:30:07;7.90;63.60
39095;DHT22;24840;47.508;19.376;2023-04-06T09:32:54;8.00;63.00
39095;DHT22;24840;47.508;19.376;2023-04-06T09:35:21;8.40;65.40
39095;DHT22;24840;47.508;19.376;2023-04-06T09:37:51;8.20;60.80
39095;DHT22;24840;47.508;19.376;2023-04-06T09:40:17;8.20;59.70
39095;DHT22;24840;47.508;19.376;2023-04-06T09:42:48;7.90;60.70
39095;DHT22;24840;47.508;19.376;2023-04-06T09:45:14;8.80;65.90
39095;DHT22;24840;47.508;19.376;2023-04-06T09:47:43;8.90;61.80
39095;DHT22;24840;47.508;19.376;2023-04-06T09:50:11;8.70;63.10
39095;DHT22;24840;47.508;19.376;2023-04-06T09:52:57;8.70;59.90
39095;DHT22;24840;47.508;19.376;2023-04-06T09:55:32;8.70;62.30
39095;DHT22;24840;47.508;19.376;2023-04-06T09:58:07;9.00;61.10
39095;DHT22;24840;47.508;19.376;2023-04-06T10:00:48;8.80;61.60
39095;DHT22;24840;47.508;19.376;2023-04-06T10:03:51;8.90;61.60
39095;DHT22;24840;47.508;19.376;2023-04-06T10:06:21;9.20;64.50
39095;DHT22;24840;47.508;19.376;2023-04-06T10:08:49;9.40;60.70
39095;DHT22;24840;47.508;19.376;2023-04-06T10:11:16;9.30;62.10
39095;DHT22;24840;47.508;19.376;2023-04-06T10:13:42;9.30;64.00
39095;DHT22;24840;47.508;19.376;2023-04-06T10:16:09;9.20;60.00
39095;DHT22;24840;47.508;19.376;2023-04-06T10:18:35;9.20;62.30
39095;DHT22;24840;47.508;19.376;2023-04-06T10:21:21;8.80;61.80
39095;DHT22;24840;47.508;19.376;2023-04-06T10:24:00;9.00;65.60
39095;DHT22;24840;47.508;19.376;2023-04-06T10:26:26;9.70;64.90
39095;DHT22;24840;47.508;19.376;2023-04-06T10:28:52;9.60;59.20
39095;DHT22;24840;47.508;19.376;2023-04-06T10:31:27;9.60;62.60
39095;DHT22;24840;47.508;19.376;2023-04-06T10:33:57;9.50;60.70
39095;DHT22;24840;47.508;19.376;2023-04-06T10:36:26;9.40;59.60
39095;DHT22;24840;47.508;19.376;2023-04-06T10:38:59;9.40;62.20
39095;DHT22;24840;47.508;19.376;2023-04-06T10:41:36;9.70;61.40
39095;DHT22;24840;47.508;19.376;2023-04-06T10:44:02;9.90;58.10
39095;DHT22;24840;47.508;19.376;2023-04-06T10:46:33;9.30;57.80
39095;DHT22;24840;47.508;19.376;2023-04-06T10:49:10;9.60;61.80
39095;DHT22;24840;47.508;19.376;2023-04-06T10:51:38;8.90;58.40
39095;DHT22;24840;47.508;19.376;2023-04-06T10:54:06;9.00;60.10
39095;DHT22;24840;47.508;19.376;2023-04-06T10:56:32;9.40;60.80
39095;DHT22;24840;47.508;19.376;2023-04-06T10:59:02;9.50;60.80
39095;DHT22;24840;47.508;19.376;2023-04-06T11:01:28;9.50;62.70
39095;DHT22;24840;47.508;19.376;2023-04-06T11:03:56;9.60;57.70
39095;DHT22;24840;47.508;19.376;2023-04-06T11:06:26;9.70;58.80
39095;DHT22;24840;47.508;19.376;2023-04-06T11:08:53;10.20;57.80
39095;DHT22;24840;47.508;19.376;2023-04-06T11:11:21;9.90;59.60
39095;DHT22;24840;47.508;19.376;2023-04-06T11:13:50;9.70;59.60
39095;DHT22;24840;47.508;19.376;2023-04-06T11:16:25;9.00;58.00
39095;DHT22;24840;47.508;19.376;2023-04-06T11:21:18;9.90;59.90
39095;DHT22;24840;47.508;19.376;2023-04-06T11:23:44;10.00;59.80
39095;DHT22;24840;47.508;19.376;2023-04-06T11:26:14;10.00;56.60
39095;DHT22;24840;47.508;19.376;2023-04-06T11:28:43;9.90;59.40
39095;DHT22;24840;47.508;19.376;2023-04-06T11:31:10;9.50;57.90
39095;DHT22;24840;47.508;19.376;2023-04-06T11:33:37;9.10;61.20
39095;DHT22;24840;47.508;19.376;2023-04-06T11:36:31;9.30;58.30
39095;DHT22;24840;47.508;19.376;2023-04-06T11:38:56;9.00;59.10
39095;DHT22;24840;47.508;19.376;2023-04-06T11:41:23;9.10;60.60
39095;DHT22;24840;47.508;19.376;2023-04-06T11:43:51;9.20;58.10
39095;DHT22;24840;47.508;19.376;2023-04-06T11:46:20;9.20;60.80
39095;DHT22;24840;47.508;19.376;2023-04-06T11:48:46;9.10;60.00
39095;DHT22;24840;47.508;19.376;2023-04-06T11:51:12;8.70;59.50
39095;DHT22;24840;47.508;19.376;2023-04-06T11:53:44;8.70;60.40
39095;DHT22;24840;47.508;19.376;2023-04-06T11:56:11;8.80;58.40
39095;DHT22;24840;47.508;19.376;2023-04-06T11:58:47;8.90;61.40
39095;DHT22;24840;47.508;19.376;2023-04-06T12:01:13;9.00;59.20
39095;DHT22;24840;47.508;19.376;2023-04-06T12:03:39;9.10;60.60
39095;DHT22;24840;47.508;19.376;2023-04-06T12:06:05;9.30;58.80
39095;DHT22;24840;47.508;19.376;2023-04-06T12:08:31;9.10;58.50
39095;DHT22;24840;47.508;19.376;2023-04-06T12:10:56;9.20;59.40
39095;DHT22;24840;47.508;19.376;2023-04-06T12:13:23;9.20;60.80
39095;DHT22;24840;47.508;19.376;2023-04-06T12:15:48;9.20;63.30
39095;DHT22;24840;47.508;19.376;2023-04-06T12:18:15;9.50;62.70
39095;DHT22;24840;47.508;19.376;2023-04-06T12:20:40;9.20;63.80
39095;DHT22;24840;47.508;19.376;2023-04-06T12:23:06;9.30;65.40
39095;DHT22;24840;47.508;19.376;2023-04-06T12:25:32;8.90;62.20
39095;DHT22;24840;47.508;19.376;2023-04-06T12:27:58;9.00;64.30
39095;DHT22;24840;47.508;19.376;2023-04-06T12:30:24;8.90;65.00
39095;DHT22;24840;47.508;19.376;2023-04-06T12:32:50;8.80;61.20
39095;DHT22;24840;47.508;19.376;2023-04-06T12:35:16;8.80;64.70
39095;DHT22;24840;47.508;19.376;2023-04-06T12:37:42;8.90;65.70
39095;DHT22;24840;47.508;19.376;2023-04-06T12:40:08;8.90;64.50
39095;DHT22;24840;47.508;19.376;2023-04-06T12:42:36;8.60;62.00
39095;DHT22;24840;47.508;19.376;2023-04-06T12:45:02;8.50;65.00
39095;DHT22;24840;47.508;19.376;2023-04-06T12:47:28;8.40;62.70
39095;DHT22;24840;47.508;19.376;2023-04-06T12:49:54;7.90;62.20
39095;DHT22;24840;47.508;19.376;2023-04-06T12:52:20;8.00;63.30
39095;DHT22;24840;47.508;19.376;2023-04-06T12:54:47;8.00;65.20
39095;DHT22;24840;47.508;19.376;2023-04-06T12:57:13;8.20;63.90
39095;DHT22;24840;47.508;19.376;2023-04-06T12:59:38;8.10;63.30
39095;DHT22;24840;47.508;19.376;2023-04-06T13:02:10;8.20;68.40
39095;DHT22;24840;47.508;19.376;2023-04-06T13:04:36;8.00;66.80
39095;DHT22;24840;47.508;19.376;2023-04-06T13:07:01;7.90;66.80
39095;DHT22;24840;47.508;19.376;2023-04-06T13:09:27;7.90;69.00
39095;DHT22;24840;47.508;19.376;2023-04-06T13:11:53;8.00;66.20
39095;DHT22;24840;47.508;19.376;2023-04-06T13:14:19;8.20;69.10
39095;DHT22;24840;47.508;19.376;2023-04-06T13:16:45;8.30;66.90
39095;DHT22;24840;47.508;19.376;2023-04-06T13:19:11;8.90;69.40
39095;DHT22;24840;47.508;19.376;2023-04-06T13:21:37;8.60;64.50
39095;DHT22;24840;47.508;19.376;2023-04-06T13:24:03;8.30;65.20
39095;DHT22;24840;47.508;19.376;2023-04-06T13:26:30;8.20;67.10
39095;DHT22;24840;47.508;19.376;2023-04-06T13:28:56;8.00;66.90
39095;DHT22;24840;47.508;19.376;2023-04-06T13:31:22;7.90;68.00
39095;DHT22;24840;47.508;19.376;2023-04-06T13:33:48;8.40;70.20
39095;DHT22;24840;47.508;19.376;2023-04-06T13:36:13;8.60;68.60
39095;DHT22;24840;47.508;19.376;2023-04-06T13:38:40;8.20;66.10
39095;DHT22;24840;47.508;19.376;2023-04-06T13:41:05;8.10;69.60
39095;DHT22;24840;47.508;19.376;2023-04-06T13:43:31;8.30;70.00
39095;DHT22;24840;47.508;19.376;2023-04-06T13:45:58;8.30;66.40
39095;DHT22;24840;47.508;19.376;2023-04-06T13:48:26;8.30;68.60
39095;DHT22;24840;47.508;19.376;2023-04-06T13:50:52;8.30;70.40
39095;DHT22;24840;47.508;19.376;2023-04-06T13:53:18;8.40;69.80
39095;DHT22;24840;47.508;19.376;2023-04-06T13:55:51;8.20;71.90
39095;DHT22;24840;47.508;19.376;2023-04-06T13:58:17;8.10;69.30
39095;DHT22;24840;47.508;19.376;2023-04-06T14:00:42;8.10;70.80
39095;DHT22;24840;47.508;19.376;2023-04-06T14:03:08;8.00;71.40
39095;DHT22;24840;47.508;19.376;2023-04-06T14:05:34;7.70;71.10
39095;DHT22;24840;47.508;19.376;2023-04-06T14:08:00;7.70;72.00
39095;DHT22;24840;47.508;19.376;2023-04-06T14:10:26;7.40;71.90
39095;DHT22;24840;47.508;19.376;2023-04-06T14:12:52;7.30;73.10
39095;DHT22;24840;47.508;19.376;2023-04-06T14:15:18;7.40;77.40
39095;DHT22;24840;47.508;19.376;2023-04-06T14:17:44;7.20;72.90
39095;DHT22;24840;47.508;19.376;2023-04-06T14:20:10;7.30;75.30
39095;DHT22;24840;47.508;19.376;2023-04-06T14:22:40;7.40;72.70
39095;DHT22;24840;47.508;19.376;2023-04-06T14:25:07;7.50;73.50
39095;DHT22;24840;47.508;19.376;2023-04-06T14:27:33;7.70;73.60
39095;DHT22;24840;47.508;19.376;2023-04-06T14:29:58;7.90;74.00
39095;DHT22;24840;47.508;19.376;2023-04-06T14:32:25;7.90;72.50
39095;DHT22;24840;47.508;19.376;2023-04-06T14:34:51;7.80;71.90
39095;DHT22;24840;47.508;19.376;2023-04-06T14:37:16;7.60;73.40
39095;DHT22;24840;47.508;19.376;2023-04-06T14:39:43;7.60;74.60
39095;DHT22;24840;47.508;19.376;2023-04-06T14:42:10;7.60;73.90
39095;DHT22;24840;47.508;19.376;2023-04-06T14:44:36;7.50;72.70
39095;DHT22;24840;47.508;19.376;2023-04-06T14:47:02;7.50;76.10
39095;DHT22;24840;47.508;19.376;2023-04-06T14:49:29;7.60;73.60
39095;DHT22;24840;47.508;19.376;2023-04-06T14:51:55;7.60;74.20
39095;DHT22;24840;47.508;19.376;2023-04-06T14:54:21;7.60;76.60
39095;DHT22;24840;47.508;19.376;2023-04-06T14:56:47;7.50;73.40
39095;DHT22;24840;47.508;19.376;2023-04-06T14:59:12;7.50;72.40
39095;DHT22;24840;47.508;19.376;2023-04-06T15:01:38;7.40;72.30
39095;DHT22;24840;47.508;19.376;2023-04-06T15:04:04;7.50;73.50
39095;DHT22;24840;47.508;19.376;2023-04-06T15:06:31;7.50;75.20
39095;DHT22;24840;47.508;19.376;2023-04-06T15:08:57;7.70;74.40
39095;DHT22;24840;47.508;19.376;2023-04-06T15:11:22;7.80;72.80
39095;DHT22;24840;47.508;19.376;2023-04-06T15:13:48;7.90;74.80
39095;DHT22;24840;47.508;19.376;2023-04-06T15:16:14;7.90;75.00
39095;DHT22;24840;47.508;19.376;2023-04-06T15:18:40;7.80;72.20
39095;DHT22;24840;47.508;19.376;2023-04-06T15:21:05;7.60;71.90
39095;DHT22;24840;47.508;19.376;2023-04-06T15:23:32;7.80;74.60
39095;DHT22;24840;47.508;19.376;2023-04-06T15:26:00;7.80;73.80